Time,TemperatureF,DewpointF,PressureIn,WindDirection,WindDirectionDegrees,WindSpeedMPH,WindSpeedGustMPH,Humidity,HourlyPrecipIn,Conditions,Clouds,dailyrainin,SoftwareType,DateUTC
2013-09-10 00:00:00,76.6,60.2,29.85,South,180,4.7,-999.0,57,-99.99,,,0.00,Acu-Link.com,2013-09-10 05:00:00,
2013-09-10 00:15:00,76.6,60.2,29.86,SSE,157,4.7,-999.0,57,-99.99,,,0.00,Acu-Link.com,2013-09-10 05:15:00,
2013-09-10 00:30:00,76.5,60.1,29.86,South,180,4.7,-999.0,57,-99.99,,,0.00,Acu-Link.com,2013-09-10 05:30:00,
2013-09-10 00:45:00,75.9,59.6,29.86,South,180,5.3,-999.0,57,-99.99,,,0.00,Acu-Link.com,2013-09-10 05:45:00,
2013-09-10 01:00:00,75.7,59.9,29.86,South,180,4.2,-999.0,58,-99.99,,,0.00,Acu-Link.com,2013-09-10 06:00:00,
2013-09-10 01:15:00,75.6,60.2,29.86,South,180,5.3,-999.0,59,-99.99,,,0.00,Acu-Link.com,2013-09-10 06:15:00,
2013-09-10 01:30:00,75.0,60.2,29.87,SSE,157,4.2,-999.0,60,-99.99,,,0.00,Acu-Link.com,2013-09-10 06:30:00,
2013-09-10 01:46:00,74.3,60.4,29.87,South,180,4.2,-999.0,62,-99.99,,,0.00,Acu-Link.com,2013-09-10 06:46:00,
2013-09-10 02:01:00,73.9,60.0,29.87,SSE,157,3.2,-999.0,62,-99.99,,,0.00,Acu-Link.com,2013-09-10 07:01:00,
2013-09-10 02:16:00,73.2,60.3,29.87,SSE,157,4.2,-999.0,64,-99.99,,,0.00,Acu-Link.com,2013-09-10 07:16:00,
2013-09-10 02:32:00,72.7,60.7,29.87,South,180,3.7,-999.0,66,-99.99,,,0.00,Acu-Link.com,2013-09-10 07:32:00,
2013-09-10 02:47:00,72.0,60.4,29.88,SSE,157,3.2,-999.0,67,-99.99,,,0.00,Acu-Link.com,2013-09-10 07:47:00,
2013-09-10 03:02:00,71.4,60.3,29.88,SSW,202,2.7,-999.0,68,-99.99,,,0.00,Acu-Link.com,2013-09-10 08:02:00,
2013-09-10 03:18:00,71.2,60.5,29.88,SSW,202,2.7,-999.0,69,-99.99,,,0.00,Acu-Link.com,2013-09-10 08:18:00,
2013-09-10 03:33:00,70.7,60.4,29.88,SSW,202,1.1,-999.0,70,-99.99,,,0.00,Acu-Link.com,2013-09-10 08:33:00,
2013-09-10 03:48:00,70.3,60.4,29.87,SSW,202,3.2,-999.0,71,-99.99,,,0.00,Acu-Link.com,2013-09-10 08:48:00,
2013-09-10 04:04:00,69.8,60.4,29.88,South,180,2.2,-999.0,72,-99.99,,,0.00,Acu-Link.com,2013-09-10 09:04:00,
2013-09-10 04:19:00,69.3,60.3,29.88,SSE,157,2.2,-999.0,73,-99.99,,,0.00,Acu-Link.com,2013-09-10 09:19:00,
2013-09-10 04:34:00,68.5,60.3,29.89,SSE,157,0.0,-999.0,75,-99.99,,,0.00,Acu-Link.com,2013-09-10 09:34:00,
2013-09-10 04:49:00,68.9,60.6,29.89,South,180,2.7,-999.0,75,-99.99,,,0.00,Acu-Link.com,2013-09-10 09:49:00,
2013-09-10 05:04:00,68.9,60.6,29.89,South,180,3.7,-999.0,75,-99.99,,,0.00,Acu-Link.com,2013-09-10 10:04:00,
2013-09-10 05:20:00,69.3,61.0,29.90,South,180,3.7,-999.0,75,-99.99,,,0.00,Acu-Link.com,2013-09-10 10:20:00,
2013-09-10 05:35:00,69.3,61.0,29.90,South,180,2.2,-999.0,75,-99.99,,,0.00,Acu-Link.com,2013-09-10 10:35:00,
2013-09-10 05:50:00,69.1,60.8,29.90,SSE,157,3.2,-999.0,75,-99.99,,,0.00,Acu-Link.com,2013-09-10 10:50:00,
2013-09-10 06:06:00,69.6,61.3,29.90,ESE,112,5.8,-999.0,75,-99.99,,,0.00,Acu-Link.com,2013-09-10 11:06:00,
2013-09-10 06:21:00,69.6,61.3,29.90,SSE,157,3.7,-999.0,75,-99.99,,,0.00,Acu-Link.com,2013-09-10 11:21:00,
2013-09-10 06:36:00,69.1,60.8,29.91,SSE,157,2.2,-999.0,75,-99.99,,,0.00,Acu-Link.com,2013-09-10 11:36:00,
2013-09-10 06:51:00,69.3,61.0,29.92,South,180,4.2,-999.0,75,-99.99,,,0.00,Acu-Link.com,2013-09-10 11:51:00,
2013-09-10 07:06:00,69.4,61.1,29.92,South,180,2.7,-999.0,75,-99.99,,,0.00,Acu-Link.com,2013-09-10 12:06:00,
2013-09-10 07:21:00,70.9,61.8,29.92,SSW,202,3.7,-999.0,73,-99.99,,,0.00,Acu-Link.com,2013-09-10 12:21:00,
2013-09-10 07:36:00,72.0,62.1,29.93,South,180,4.2,-999.0,71,-99.99,,,0.00,Acu-Link.com,2013-09-10 12:36:00,
2013-09-10 07:51:00,73.0,62.6,29.93,South,180,4.2,-999.0,70,-99.99,,,0.00,Acu-Link.com,2013-09-10 12:51:00,
2013-09-10 08:36:00,77.5,63.4,29.93,South,180,4.7,-999.0,62,-99.99,,,0.00,Acu-Link.com,2013-09-10 13:36:00,
2013-09-10 08:51:00,79.0,63.4,29.94,SSE,157,4.2,-999.0,59,-99.99,,,0.00,Acu-Link.com,2013-09-10 13:51:00,
2013-09-10 09:07:00,79.9,63.8,29.93,West,270,3.7,-999.0,58,-99.99,,,0.00,Acu-Link.com,2013-09-10 14:07:00,
2013-09-10 09:22:00,81.7,65.0,29.94,West,270,2.7,-999.0,57,-99.99,,,0.00,Acu-Link.com,2013-09-10 14:22:00,
2013-09-10 09:37:00,82.6,64.8,29.94,NW,315,6.3,-999.0,55,-99.99,,,0.00,Acu-Link.com,2013-09-10 14:37:00,
2013-09-10 09:53:00,84.7,65.6,29.94,SW,225,5.8,-999.0,53,-99.99,,,0.00,Acu-Link.com,2013-09-10 14:53:00,
2013-09-10 10:12:00,85.5,65.3,29.94,ESE,112,2.7,-999.0,51,-99.99,,,0.00,Acu-Link.com,2013-09-10 15:12:00,
2013-09-10 10:29:00,87.1,65.6,29.94,SSW,202,10.4,-999.0,49,-99.99,,,0.00,Acu-Link.com,2013-09-10 15:29:00,
2013-09-10 10:45:00,88.7,65.8,29.94,SSW,202,7.8,-999.0,47,-99.99,,,0.00,Acu-Link.com,2013-09-10 15:45:00,
2013-09-10 11:00:00,89.2,65.7,29.94,South,180,7.3,-999.0,46,-99.99,,,0.00,Acu-Link.com,2013-09-10 16:00:00,
2013-09-10 11:15:00,89.2,65.7,29.94,SSW,202,4.7,-999.0,46,-99.99,,,0.00,Acu-Link.com,2013-09-10 16:15:00,
2013-09-10 11:30:00,90.1,65.2,29.94,SSE,157,8.3,-999.0,44,-99.99,,,0.00,Acu-Link.com,2013-09-10 16:30:00,
2013-09-10 11:45:00,92.5,66.7,29.95,West,270,4.2,-999.0,43,-99.99,,,0.00,Acu-Link.com,2013-09-10 16:45:00,
2013-09-10 12:00:00,93.4,66.8,29.94,West,270,7.8,-999.0,42,-99.99,,,0.00,Acu-Link.com,2013-09-10 17:00:00,
2013-09-10 12:16:00,93.7,66.4,29.95,SSW,202,5.3,-999.0,41,-99.99,,,0.00,Acu-Link.com,2013-09-10 17:16:00,
2013-09-10 12:31:00,93.6,65.6,29.94,East,90,4.7,-999.0,40,-99.99,,,0.00,Acu-Link.com,2013-09-10 17:31:00,
2013-09-10 12:46:00,94.5,66.4,29.94,South,180,2.2,-999.0,40,-99.99,,,0.00,Acu-Link.com,2013-09-10 17:46:00,
2013-09-10 13:01:00,94.6,65.0,29.94,South,180,5.3,-999.0,38,-99.99,,,0.00,Acu-Link.com,2013-09-10 18:01:00,
2013-09-10 13:16:00,95.2,64.8,29.94,South,180,5.3,-999.0,37,-99.99,,,0.00,Acu-Link.com,2013-09-10 18:16:00,
2013-09-10 13:31:00,95.4,64.2,29.93,SSE,157,4.2,-999.0,36,-99.99,,,0.00,Acu-Link.com,2013-09-10 18:31:00,
2013-09-10 13:46:00,96.1,65.6,29.93,SSE,157,2.7,-999.0,37,-99.99,,,0.00,Acu-Link.com,2013-09-10 18:46:00,
2013-09-10 14:01:00,95.9,64.6,29.93,SSE,157,6.3,-999.0,36,-99.99,,,0.00,Acu-Link.com,2013-09-10 19:01:00,
2013-09-10 14:17:00,96.1,64.0,29.93,SSW,202,4.7,-999.0,35,-99.99,,,0.00,Acu-Link.com,2013-09-10 19:17:00,
2013-09-10 14:32:00,96.6,64.4,29.92,South,180,6.3,-999.0,35,-99.99,,,0.00,Acu-Link.com,2013-09-10 19:32:00,
2013-09-10 14:47:00,97.0,64.7,29.92,NNW,337,3.2,-999.0,35,-99.99,,,0.00,Acu-Link.com,2013-09-10 19:47:00,
2013-09-10 15:02:00,96.3,64.1,29.92,SW,225,9.4,-999.0,35,-99.99,,,0.00,Acu-Link.com,2013-09-10 20:02:00,
2013-09-10 15:17:00,95.0,63.0,29.91,SW,225,4.2,-999.0,35,-99.99,,,0.00,Acu-Link.com,2013-09-10 20:17:00,
2013-09-10 15:32:00,93.6,63.4,29.92,South,180,4.2,-999.0,37,-99.99,,,0.00,Acu-Link.com,2013-09-10 20:32:00,
2013-09-10 15:47:00,93.7,62.7,29.91,ESE,112,2.2,-999.0,36,-99.99,,,0.00,Acu-Link.com,2013-09-10 20:47:00,
2013-09-10 16:02:00,96.1,64.0,29.90,West,270,5.8,-999.0,35,-99.99,,,0.00,Acu-Link.com,2013-09-10 21:02:00,
2013-09-10 16:17:00,95.7,64.4,29.90,West,270,9.4,-999.0,36,-99.99,,,0.00,Acu-Link.com,2013-09-10 21:17:00,
2013-09-10 16:42:00,93.0,63.6,29.90,South,180,3.2,-999.0,38,-99.99,,,0.00,Acu-Link.com,2013-09-10 21:42:00,
2013-09-10 16:57:00,93.2,63.0,29.90,SSE,157,1.1,-999.0,37,-99.99,,,0.00,Acu-Link.com,2013-09-10 21:57:00,
2013-09-10 17:24:00,92.7,64.1,29.90,West,270,2.7,-999.0,39,-99.99,,,0.00,Acu-Link.com,2013-09-10 22:24:00,
2013-09-10 17:39:00,92.1,64.3,29.89,West,270,1.7,-999.0,40,-99.99,,,0.00,Acu-Link.com,2013-09-10 22:39:00,
2013-09-10 17:55:00,93.2,63.8,29.89,West,270,4.7,-999.0,38,-99.99,,,0.00,Acu-Link.com,2013-09-10 22:55:00,
2013-09-10 18:10:00,91.9,64.1,29.89,SW,225,3.2,-999.0,40,-99.99,,,0.00,Acu-Link.com,2013-09-10 23:10:00,
2013-09-10 18:25:00,91.9,64.1,29.89,South,180,8.9,-999.0,40,-99.99,,,0.00,Acu-Link.com,2013-09-10 23:25:00,
2013-09-10 18:40:00,90.9,64.6,29.89,SE,135,3.2,-999.0,42,-99.99,,,0.00,Acu-Link.com,2013-09-10 23:40:00,
2013-09-10 18:56:00,89.8,64.9,29.90,East,90,2.7,-999.0,44,-99.99,,,0.00,Acu-Link.com,2013-09-10 23:56:00,
2013-09-10 19:11:00,87.4,64.7,29.89,ESE,112,4.7,-999.0,47,-99.99,,,0.00,Acu-Link.com,2013-09-11 00:11:00,
2013-09-10 19:26:00,86.0,64.6,29.90,ESE,112,2.2,-999.0,49,-99.99,,,0.00,Acu-Link.com,2013-09-11 00:26:00,
2013-09-10 19:41:00,84.4,64.3,29.90,ESE,112,3.7,-999.0,51,-99.99,,,0.00,Acu-Link.com,2013-09-11 00:41:00,
2013-09-10 19:56:00,83.5,64.5,29.90,SSW,202,4.2,-999.0,53,-99.99,,,0.00,Acu-Link.com,2013-09-11 00:56:00,
2013-09-10 20:14:00,82.6,64.2,29.91,SSW,202,3.2,-999.0,54,-99.99,,,0.00,Acu-Link.com,2013-09-11 01:14:00,
2013-09-10 20:29:00,81.5,63.7,29.91,South,180,3.2,-999.0,55,-99.99,,,0.00,Acu-Link.com,2013-09-11 01:29:00,
2013-09-10 20:44:00,81.0,63.8,29.92,South,180,2.7,-999.0,56,-99.99,,,0.00,Acu-Link.com,2013-09-11 01:44:00,
2013-09-10 20:59:00,81.3,63.6,29.93,South,180,3.7,-999.0,55,-99.99,,,0.00,Acu-Link.com,2013-09-11 01:59:00,
2013-09-10 21:14:00,81.0,63.8,29.94,South,180,3.7,-999.0,56,-99.99,,,0.00,Acu-Link.com,2013-09-11 02:14:00,
2013-09-10 21:53:00,80.2,63.6,29.94,SSE,157,3.7,-999.0,57,-99.99,,,0.00,Acu-Link.com,2013-09-11 02:53:00,
2013-09-10 22:09:00,79.9,63.3,29.95,SSW,202,4.7,-999.0,57,-99.99,,,0.00,Acu-Link.com,2013-09-11 03:09:00,
2013-09-10 22:24:00,79.3,63.2,29.96,South,180,3.7,-999.0,58,-99.99,,,0.00,Acu-Link.com,2013-09-11 03:24:00,
2013-09-10 22:39:00,78.6,63.5,29.97,South,180,4.2,-999.0,60,-99.99,,,0.00,Acu-Link.com,2013-09-11 03:39:00,
2013-09-10 22:54:00,77.7,63.2,29.97,South,180,4.2,-999.0,61,-99.99,,,0.00,Acu-Link.com,2013-09-11 03:54:00,
2013-09-10 23:10:00,76.8,63.2,29.98,South,180,2.7,-999.0,63,-99.99,,,0.00,Acu-Link.com,2013-09-11 04:10:00,
2013-09-10 23:25:00,76.8,63.7,29.98,South,180,4.2,-999.0,64,-99.99,,,0.00,Acu-Link.com,2013-09-11 04:25:00,
2013-09-10 23:40:00,77.0,63.4,29.98,South,180,4.2,-999.0,63,-99.99,,,0.00,Acu-Link.com,2013-09-11 04:40:00,
2013-09-10 23:56:00,76.8,63.2,29.98,South,180,4.2,-999.0,63,-99.99,,,0.00,Acu-Link.com,2013-09-11 04:56:00,